Time;durP1;ratioP1;P1;durP2;ratioP2;P2;SDS_P1;SDS_P2;PMS_P1;PMS_P2;Temp;Humidity;BMP_temperature;BMP_pressure;BME280_temperature;BME280_humidity;BME280_pressure;Samples;Min_cycle;Max_cycle;Signal;HPM_P1;HPM_P2
2021/05/18 00:01:49;;;;;;;4.03;3.10;;;9.10;99.90;;;;;;4845306;29;20054;-88
2021/05/18 00:04:17;;;;;;;7.05;3.80;;;9.00;99.90;;;;;;4880397;29;20049;-88
2021/05/18 00:06:47;;;;;;;4.75;3.20;;;9.00;99.90;;;;;;4849930;29;20060;-89
2021/05/18 00:12:01;;;;;;;5.45;3.63;;;9.00;99.90;;;;;;4876650;29;20048;-89
2021/05/18 00:14:32;;;;;;;6.47;3.38;;;8.90;99.90;;;;;;4878660;29;20067;-89
2021/05/18 00:17:00;;;;;;;6.05;3.63;;;8.90;99.90;;;;;;4870487;29;20056;-88
2021/05/18 00:19:28;;;;;;;4.80;3.35;;;9.00;99.90;;;;;;4849965;29;20056;-88
2021/05/18 00:21:55;;;;;;;6.50;4.47;;;9.00;99.90;;;;;;4841239;29;20327;-88
2021/05/18 00:24:25;;;;;;;6.43;3.15;;;8.90;99.90;;;;;;4860042;29;20072;-89
2021/05/18 00:26:54;;;;;;;6.57;4.47;;;8.90;99.90;;;;;;4880820;29;20053;-88
2021/05/18 00:29:22;;;;;;;5.85;3.75;;;8.90;99.90;;;;;;4859697;29;20413;-88
2021/05/18 00:31:50;;;;;;;4.15;3.10;;;9.10;99.90;;;;;;4861968;29;20066;-89
2021/05/18 00:34:19;;;;;;;5.70;3.67;;;8.90;99.90;;;;;;4879241;29;20511;-88
2021/05/18 00:36:47;;;;;;;6.00;3.05;;;9.40;99.90;;;;;;4858918;29;20050;-88
2021/05/18 00:39:17;;;;;;;4.95;3.10;;;8.90;99.90;;;;;;4847664;29;20064;-89
2021/05/18 00:41:48;;;;;;;7.88;3.83;;;8.90;99.90;;;;;;4876361;29;20048;-89
2021/05/18 00:44:16;;;;;;;8.32;4.78;;;9.00;99.90;;;;;;4866952;29;20146;-88
2021/05/18 00:46:44;;;;;;;6.53;4.00;;;9.00;99.90;;;;;;4842772;29;20064;-90
2021/05/18 00:49:12;;;;;;;7.68;3.83;;;9.00;99.90;;;;;;4853431;29;20045;-88
2021/05/18 00:51:46;;;;;;;5.75;3.95;;;8.90;99.90;;;;;;4838962;29;20050;-88
2021/05/18 00:54:23;;;;;;;10.00;5.07;;;8.90;99.90;;;;;;4875650;29;20065;-88
2021/05/18 00:59:40;;;;;;;7.18;4.25;;;8.90;99.90;;;;;;4852392;29;20059;-89
2021/05/18 01:02:08;;;;;;;8.10;4.20;;;8.90;99.90;;;;;;4840430;29;20528;-88
2021/05/18 01:04:41;;;;;;;7.88;4.03;;;9.00;99.90;;;;;;4860253;29;20470;-88
2021/05/18 01:07:11;;;;;;;9.80;4.55;;;8.90;99.90;;;;;;4844442;29;20049;-89
2021/05/18 01:09:39;;;;;;;10.88;4.32;;;8.90;99.90;;;;;;4863613;29;20053;-88
2021/05/18 01:12:08;;;;;;;12.35;4.28;;;8.90;99.90;;;;;;4864020;29;20056;-89
2021/05/18 01:14:36;;;;;;;9.52;4.50;;;8.90;99.90;;;;;;4852329;29;22090;-89
2021/05/18 01:17:04;;;;;;;7.30;5.63;;;8.90;99.90;;;;;;4860882;29;20056;-88
2021/05/18 01:19:34;;;;;;;9.38;5.03;;;8.90;99.90;;;;;;4853267;29;20068;-89
2021/05/18 01:22:03;;;;;;;8.40;4.97;;;8.80;99.90;;;;;;4864774;29;20068;-89
2021/05/18 01:24:38;;;;;;;12.63;5.18;;;8.80;99.90;;;;;;4878140;29;20053;-89
2021/05/18 01:27:08;;;;;;;7.60;4.82;;;8.80;99.90;;;;;;4861699;29;20049;-89
2021/05/18 01:29:37;;;;;;;11.07;5.30;;;8.70;99.90;;;;;;4890302;29;20057;-88
2021/05/18 01:32:08;;;;;;;13.02;5.10;;;8.80;99.90;;;;;;4861865;29;20049;-89
2021/05/18 01:34:36;;;;;;;9.20;4.78;;;8.70;99.90;;;;;;4850721;29;20064;-89
2021/05/18 01:37:05;;;;;;;7.40;4.68;;;8.70;99.90;;;;;;4856571;29;20060;-89
2021/05/18 01:45:13;;;;;;;13.88;5.75;;;8.60;99.90;;;;;;4858161;29;20048;-89
2021/05/18 01:47:48;;;;;;;10.10;5.32;;;8.60;99.90;;;;;;4847840;29;20050;-88
2021/05/18 01:50:26;;;;;;;11.27;5.53;;;8.60;99.90;;;;;;4856072;29;20057;-88
2021/05/18 01:52:54;;;;;;;14.52;5.13;;;9.60;99.90;;;;;;4874439;29;20138;-88
2021/05/18 01:55:32;;;;;;;9.95;5.65;;;8.60;99.90;;;;;;4856906;29;20417;-88
2021/05/18 01:58:02;;;;;;;16.80;7.57;;;8.80;99.90;;;;;;4892084;29;20053;-88
2021/05/18 02:00:44;;;;;;;8.60;5.80;;;8.50;99.90;;;;;;4864792;29;20064;-89
2021/05/18 02:03:23;;;;;;;14.03;6.07;;;9.20;99.90;;;;;;4531205;29;10001010;-88
2021/05/18 02:05:52;;;;;;;12.23;6.05;;;8.40;99.90;;;;;;4850444;29;20057;-88
2021/05/18 02:08:30;;;;;;;11.68;6.47;;;9.30;99.90;;;;;;4881028;29;20059;-88
2021/05/18 02:11:01;;;;;;;15.18;6.25;;;8.60;99.90;;;;;;4855635;29;20061;-90
2021/05/18 02:13:30;;;;;;;13.45;6.43;;;8.50;99.90;;;;;;4882322;29;20053;-89
2021/05/18 02:16:09;;;;;;;10.82;6.13;;;8.50;99.90;;;;;;4862416;29;20137;-88
2021/05/18 02:22:17;;;;;;;14.48;5.93;;;8.50;99.90;;;;;;4826449;29;20069;-90
2021/05/18 02:25:02;;;;;;;15.70;6.45;;;8.50;99.90;;;;;;4858386;29;20065;-87
2021/05/18 02:27:56;;;;;;;11.63;6.88;;;9.60;99.90;;;;;;4865210;29;20402;-88
2021/05/18 02:30:26;;;;;;;14.75;7.35;;;8.50;99.90;;;;;;4850417;29;20055;-88
2021/05/18 02:33:25;;;;;;;16.35;6.95;;;8.40;99.90;;;;;;4870310;29;20057;-88
2021/05/18 02:35:53;;;;;;;19.90;7.75;;;8.40;99.90;;;;;;4839061;29;20045;-88
2021/05/18 02:38:22;;;;;;;15.50;6.85;;;8.60;99.90;;;;;;4844115;29;20056;-89
2021/05/18 02:40:52;;;;;;;15.25;7.20;;;8.40;99.90;;;;;;4871088;29;20051;-88
2021/05/18 02:43:26;;;;;;;14.75;7.63;;;8.30;99.90;;;;;;4846982;29;20049;-88
2021/05/18 02:51:14;;;;;;;14.27;7.30;;;7.90;99.90;;;;;;4861419;29;20057;-88
2021/05/18 02:53:50;;;;;;;18.10;7.47;;;8.40;99.90;;;;;;4858338;29;20409;-89
2021/05/18 02:56:30;;;;;;;17.65;8.13;;;9.90;99.90;;;;;;4894151;29;20558;-89
2021/05/18 03:01:26;;;;;;;16.08;7.65;;;9.10;99.90;;;;;;4874373;29;20494;-88
2021/05/18 03:03:54;;;;;;;16.35;7.70;;;8.20;99.90;;;;;;4857954;29;20058;-89
2021/05/18 03:06:23;;;;;;;17.55;8.50;;;8.50;99.90;;;;;;4876751;29;20112;-88
2021/05/18 03:08:51;;;;;;;15.23;7.38;;;8.30;99.90;;;;;;4855527;29;20058;-88
2021/05/18 03:11:19;;;;;;;14.80;7.35;;;8.30;99.90;;;;;;4877575;29;20060;-89
2021/05/18 03:13:47;;;;;;;14.65;8.35;;;8.20;99.90;;;;;;4875907;29;20058;-88
2021/05/18 03:16:23;;;;;;;14.88;7.40;;;7.00;99.90;;;;;;4881763;29;20057;-88
2021/05/18 03:18:52;;;;;;;17.48;7.07;;;8.20;99.90;;;;;;4868844;29;20048;-88
2021/05/18 03:21:20;;;;;;;15.20;7.43;;;8.20;99.90;;;;;;4857144;29;20061;-88
2021/05/18 03:23:48;;;;;;;15.15;8.07;;;8.10;99.90;;;;;;4879264;29;20049;-88
2021/05/18 03:26:16;;;;;;;15.23;7.90;;;8.10;99.90;;;;;;4869184;29;20497;-88
2021/05/18 03:28:47;;;;;;;14.80;7.57;;;8.80;99.90;;;;;;4870668;29;20056;-89
2021/05/18 03:36:48;;;;;;;14.90;8.02;;;8.00;99.90;;;;;;4882049;29;20063;-90
2021/05/18 03:39:16;;;;;;;16.75;8.48;;;8.00;99.90;;;;;;4869702;29;20071;-90
2021/05/18 03:41:54;;;;;;;20.38;8.93;;;7.90;99.90;;;;;;4879770;29;20045;-88
2021/05/18 03:44:46;;;;;;;16.80;7.65;;;9.00;99.90;;;;;;4893508;29;20060;-89
2021/05/18 03:58:38;;;;;;;14.05;6.90;;;7.90;99.90;;;;;;4891960;29;20049;-90
2021/05/18 04:17:18;;;;;;;18.33;7.43;;;8.00;99.90;;;;;;4874417;29;20057;-88
2021/05/18 04:19:52;;;;;;;15.75;7.40;;;7.70;99.90;;;;;;4877317;29;20064;-89
2021/05/18 04:38:49;;;;;;;14.60;7.65;;;7.70;99.90;;;;;;4898155;29;20056;-88
2021/05/18 04:51:57;;;;;;;11.73;5.60;;;7.80;99.90;;;;;;4887085;29;20052;-89
2021/05/18 05:07:58;;;;;;;12.70;7.68;;;8.00;99.90;;;;;;4892003;29;20052;-89
2021/05/18 05:16:04;;;;;;;17.75;7.50;;;8.80;99.90;;;;;;4885626;29;20056;-89
2021/05/18 05:18:32;;;;;;;14.00;8.15;;;8.20;99.90;;;;;;4844910;29;20053;-89
2021/05/18 05:21:00;;;;;;;15.93;7.90;;;8.20;99.90;;;;;;4886782;29;20056;-89
2021/05/18 05:23:28;;;;;;;22.25;8.75;;;8.30;99.90;;;;;;4887772;29;20056;-90
2021/05/18 05:25:56;;;;;;;17.25;8.38;;;8.30;99.90;;;;;;4870502;29;20056;-88
2021/05/18 05:28:24;;;;;;;15.30;7.28;;;8.30;99.90;;;;;;4852090;29;20079;-88
2021/05/18 05:30:52;;;;;;;17.00;8.02;;;9.70;99.90;;;;;;4868301;29;20056;-89
2021/05/18 05:33:20;;;;;;;20.83;7.22;;;9.20;99.90;;;;;;4901052;29;20520;-88
2021/05/18 05:35:51;;;;;;;15.63;9.15;;;8.50;99.90;;;;;;4920038;29;20061;-88
2021/05/18 05:38:22;;;;;;;25.98;11.25;;;8.50;99.90;;;;;;4867843;29;20053;-88
2021/05/18 05:40:51;;;;;;;21.17;9.13;;;8.80;99.90;;;;;;4868071;29;20056;-89
2021/05/18 05:43:19;;;;;;;20.88;8.70;;;8.60;99.90;;;;;;4880831;29;20501;-87
2021/05/18 05:45:49;;;;;;;19.23;7.03;;;8.70;99.90;;;;;;4859063;29;20045;-88
2021/05/18 05:48:18;;;;;;;19.30;8.77;;;9.30;99.90;;;;;;4869761;29;20065;-88
2021/05/18 05:50:49;;;;;;;17.15;8.48;;;9.80;99.90;;;;;;4888970;29;20207;-90
2021/05/18 05:53:17;;;;;;;14.25;7.35;;;8.80;99.90;;;;;;4858351;29;20691;-90
2021/05/18 05:55:45;;;;;;;19.33;8.95;;;8.90;99.90;;;;;;4846083;29;20086;-89
2021/05/18 05:58:13;;;;;;;15.95;7.60;;;8.90;99.90;;;;;;4877231;29;20056;-90
2021/05/18 06:00:41;;;;;;;14.50;6.72;;;9.00;99.90;;;;;;4854733;29;20115;-88
2021/05/18 06:03:09;;;;;;;12.93;7.38;;;9.30;99.90;;;;;;4878463;29;20064;-90
2021/05/18 06:05:39;;;;;;;14.68;6.70;;;9.10;99.90;;;;;;4871823;29;20049;-89
2021/05/18 06:08:37;;;;;;;19.40;7.82;;;9.20;99.90;;;;;;4849028;29;20074;-89
2021/05/18 06:47:59;;;;;;;13.13;7.22;;;10.10;99.90;;;;;;4856871;29;20076;-85
2021/05/18 06:52:59;;;;;;;11.40;6.95;;;10.60;99.90;;;;;;4896090;29;20057;-85
2021/05/18 06:55:32;;;;;;;14.07;5.43;;;10.20;99.90;;;;;;4889914;29;20049;-85
2021/05/18 06:58:11;;;;;;;13.35;5.65;;;10.70;99.90;;;;;;4890201;29;20059;-84
2021/05/18 07:00:46;;;;;;;13.82;7.18;;;10.40;99.90;;;;;;4897830;29;20053;-90
2021/05/18 07:03:36;;;;;;;11.30;6.03;;;10.60;99.90;;;;;;4887696;29;20668;-89
2021/05/18 07:08:57;;;;;;;10.60;5.95;;;10.70;99.90;;;;;;4883798;29;20057;-88
2021/05/18 07:11:26;;;;;;;15.55;5.63;;;10.80;99.90;;;;;;4872213;29;20046;-87
2021/05/18 07:13:56;;;;;;;13.30;5.67;;;10.80;99.90;;;;;;4873768;29;20060;-86
2021/05/18 07:16:28;;;;;;;9.93;5.70;;;10.80;99.90;;;;;;4873016;29;20067;-85
2021/05/18 07:18:56;;;;;;;14.55;6.38;;;10.90;99.90;;;;;;4890728;29;20520;-90
2021/05/18 07:21:23;;;;;;;14.80;6.15;;;10.90;99.90;;;;;;4842709;29;20060;-90
2021/05/18 07:23:52;;;;;;;15.10;6.18;;;10.90;99.90;;;;;;4873986;29;20048;-88
2021/05/18 07:26:20;;;;;;;11.93;5.95;;;11.10;99.90;;;;;;4882611;29;20053;-86
2021/05/18 07:28:49;;;;;;;16.27;6.78;;;11.20;99.90;;;;;;4886044;29;20076;-89
2021/05/18 07:31:17;;;;;;;11.50;4.90;;;11.20;99.90;;;;;;4866093;29;20052;-87
2021/05/18 07:33:46;;;;;;;10.38;5.18;;;11.70;99.90;;;;;;4878019;29;20060;-87
2021/05/18 07:36:14;;;;;;;21.13;7.05;;;11.30;99.90;;;;;;4892634;29;20064;-88
2021/05/18 07:38:42;;;;;;;12.27;5.97;;;11.40;99.90;;;;;;4872042;29;20067;-89
2021/05/18 07:41:11;;;;;;;11.93;5.35;;;11.50;99.90;;;;;;4860778;29;20120;-88
2021/05/18 07:43:39;;;;;;;12.30;5.72;;;11.60;99.90;;;;;;4882226;29;20401;-87
2021/05/18 07:46:13;;;;;;;10.52;5.00;;;11.60;99.90;;;;;;4879670;29;20505;-89
2021/05/18 07:49:07;;;;;;;13.55;5.65;;;11.60;99.90;;;;;;4885785;29;20057;-87
2021/05/18 07:59:36;;;;;;;11.57;4.82;;;11.90;99.90;;;;;;4883648;29;20057;-86
2021/05/18 08:07:38;;;;;;;12.55;4.85;;;12.10;99.90;;;;;;4871276;29;20428;-87
2021/05/18 08:10:20;;;;;;;11.80;5.05;;;12.20;99.90;;;;;;4882246;29;20412;-88
2021/05/18 08:12:48;;;;;;;15.07;5.82;;;12.30;99.90;;;;;;4886651;29;20065;-87
2021/05/18 08:20:49;;;;;;;19.15;6.45;;;12.50;99.90;;;;;;4870777;29;20734;-89
2021/05/18 09:37:48;;;;;;;9.27;3.85;;;14.40;99.90;;;;;;4877837;29;20053;-88
2021/05/18 10:38:40;;;;;;;6.50;2.72;;;16.40;99.90;;;;;;4871714;29;20480;-87
2021/05/18 10:41:28;;;;;;;6.90;2.70;;;16.50;99.90;;;;;;4881151;29;20049;-90
2021/05/18 10:44:05;;;;;;;5.43;2.35;;;16.60;99.90;;;;;;4877058;29;20057;-89
2021/05/18 10:46:54;;;;;;;4.22;2.33;;;16.70;99.90;;;;;;4855051;29;20058;-89
2021/05/18 10:49:36;;;;;;;4.70;2.33;;;16.80;99.90;;;;;;4882131;29;20053;-89
2021/05/18 10:52:07;;;;;;;4.90;2.83;;;17.00;99.90;;;;;;4849495;29;20054;-90
2021/05/18 10:54:39;;;;;;;6.13;2.80;;;17.10;99.90;;;;;;4873836;29;20575;-90
2021/05/18 10:57:16;;;;;;;9.77;2.95;;;17.10;99.90;;;;;;4870303;29;20045;-90
2021/05/18 10:59:56;;;;;;;4.50;2.50;;;17.30;99.90;;;;;;4857315;29;20049;-89
2021/05/18 11:02:38;;;;;;;9.30;3.28;;;17.30;99.90;;;;;;4852126;29;20614;-88
2021/05/18 11:05:11;;;;;;;5.65;2.72;;;17.30;99.90;;;;;;4867802;29;20057;-88
2021/05/18 11:07:48;;;;;;;7.05;2.35;;;17.30;99.90;;;;;;4854636;29;20723;-90
2021/05/18 11:10:20;;;;;;;3.35;2.17;;;17.40;99.90;;;;;;4837380;29;20061;-87
2021/05/18 11:12:54;;;;;;;10.18;3.15;;;17.40;99.90;;;;;;4853584;29;20057;-90
2021/05/18 11:15:23;;;;;;;6.45;2.53;;;17.30;99.90;;;;;;4845253;29;20064;-90
2021/05/18 11:17:55;;;;;;;3.38;2.10;;;17.20;99.90;;;;;;4866724;29;20045;-90
2021/05/18 11:26:09;;;;;;;4.50;2.53;;;17.10;99.90;;;;;;4841109;29;20058;-89
2021/05/18 11:28:44;;;;;;;4.82;2.33;;;17.10;99.90;;;;;;4830280;29;20056;-89
2021/05/18 11:31:24;;;;;;;7.63;2.40;;;17.20;99.90;;;;;;4872380;29;20065;-89
2021/05/18 11:34:04;;;;;;;4.72;2.55;;;17.20;99.90;;;;;;4860180;29;20045;-88
2021/05/18 11:36:41;;;;;;;5.97;2.67;;;17.30;99.90;;;;;;4851624;29;20072;-88
2021/05/18 11:39:13;;;;;;;7.75;3.50;;;17.40;99.90;;;;;;4877854;29;20052;-89
2021/05/18 11:41:45;;;;;;;3.05;2.35;;;17.30;99.90;;;;;;4862901;29;20382;-90
2021/05/18 11:44:14;;;;;;;4.75;1.98;;;17.50;99.90;;;;;;4853397;29;20049;-89
2021/05/18 11:46:43;;;;;;;4.82;2.13;;;17.50;99.90;;;;;;4844280;29;20052;-88
2021/05/18 11:49:13;;;;;;;3.35;1.70;;;17.70;99.90;;;;;;4872139;29;20424;-91
2021/05/18 11:51:43;;;;;;;5.13;1.73;;;17.90;99.90;;;;;;4870355;29;20414;-90
2021/05/18 11:54:37;;;;;;;6.35;2.08;;;18.00;99.90;;;;;;4852689;29;20049;-92
2021/05/18 11:57:18;;;;;;;4.00;1.75;;;18.20;99.90;;;;;;4882150;29;20057;-88
2021/05/18 12:00:30;;;;;;;6.32;1.88;;;18.10;99.90;;;;;;4865265;29;20049;-88
2021/05/18 12:03:31;;;;;;;5.32;2.00;;;17.50;99.90;;;;;;4900026;29;20056;-88
2021/05/18 12:06:20;;;;;;;5.60;2.72;;;18.00;99.90;;;;;;4916174;23;20424;-89
2021/05/18 12:09:22;;;;;;;5.10;2.20;;;18.00;99.90;;;;;;4889330;29;20060;-87
2021/05/18 12:17:37;;;;;;;5.57;1.58;;;18.10;99.90;;;;;;4915916;29;20051;-89
2021/05/18 12:20:51;;;;;;;1.98;1.20;;;18.10;99.90;;;;;;4886644;29;20112;-92
2021/05/18 12:23:25;;;;;;;9.30;2.47;;;18.30;99.20;;;;;;4911318;29;20045;-90
2021/05/18 12:26:16;;;;;;;2.45;1.30;;;18.60;99.90;;;;;;4917050;29;20048;-89
2021/05/18 12:29:30;;;;;;;;;;;18.70;98.00;;;;;;4916339;29;20044;-88
2021/05/18 12:32:33;;;;;;;2.47;1.50;;;18.60;96.80;;;;;;4892969;29;19925;-87
2021/05/18 12:36:02;;;;;;;5.15;2.03;;;18.20;98.00;;;;;;4911607;29;20052;-92
2021/05/18 12:38:36;;;;;;;;;;;19.00;97.70;;;;;;4880090;29;20056;-88
2021/05/18 12:41:51;;;;;;;5.93;1.42;;;19.30;97.50;;;;;;4881143;29;19924;-90
2021/05/18 12:45:21;;;;;;;7.05;2.08;;;19.50;95.50;;;;;;4895170;29;20041;-91
2021/05/18 12:47:58;;;;;;;3.80;1.95;;;19.60;93.30;;;;;;4877004;29;20071;-89
2021/05/18 12:50:52;;;;;;;4.82;1.50;;;19.60;94.30;;;;;;4880434;29;20069;-90
2021/05/18 12:53:41;;;;;;;4.63;1.40;;;19.50;92.80;;;;;;4876787;29;20051;-93
2021/05/18 12:56:35;;;;;;;2.75;1.27;;;20.00;93.40;;;;;;4903268;29;20059;-92
2021/05/18 13:02:52;;;;;;;2.28;1.35;;;19.10;92.10;;;;;;4886013;29;20059;-91
2021/05/18 13:05:29;;;;;;;5.10;1.42;;;18.90;93.10;;;;;;4873971;29;20064;-91
2021/05/18 13:08:38;;;;;;;2.45;1.75;;;18.70;92.10;;;;;;4894853;29;20071;-88
2021/05/18 13:14:03;;;;;;;3.08;1.67;;;18.20;93.20;;;;;;4913594;23;20068;-89
2021/05/18 13:16:35;;;;;;;1.77;1.35;;;17.90;93.70;;;;;;4889359;29;20040;-89
2021/05/18 13:19:06;;;;;;;3.37;1.50;;;17.70;94.60;;;;;;4889422;29;20048;-88
2021/05/18 13:21:46;;;;;;;7.80;3.17;;;17.30;98.40;;;;;;4894866;29;20303;-88
2021/05/18 13:26:42;;;;;;;3.78;1.65;;;16.10;99.90;;;;;;4872766;29;20041;-89
2021/05/18 13:29:20;;;;;;;3.85;1.10;;;15.50;99.90;;;;;;4889655;29;20575;-89
2021/05/18 13:31:51;;;;;;;3.90;2.00;;;15.00;99.90;;;;;;4891421;29;20064;-90
2021/05/18 13:34:32;;;;;;;3.65;1.35;;;14.60;99.90;;;;;;4874102;29;20056;-88
2021/05/18 13:37:00;;;;;;;3.28;1.52;;;14.30;99.90;;;;;;4853242;29;20152;-88
2021/05/18 13:39:28;;;;;;;3.13;1.60;;;14.10;99.90;;;;;;4874212;29;20048;-90
2021/05/18 13:41:56;;;;;;;5.70;1.70;;;13.90;99.90;;;;;;4861359;29;20916;-88
2021/05/18 13:44:24;;;;;;;6.45;1.95;;;13.70;99.90;;;;;;4875113;29;20057;-90
2021/05/18 13:46:52;;;;;;;3.10;1.88;;;13.70;99.90;;;;;;4862975;29;20056;-89
2021/05/18 13:49:20;;;;;;;2.30;1.10;;;13.10;99.90;;;;;;4865018;29;20045;-91
2021/05/18 13:51:48;;;;;;;1.48;1.33;;;14.00;99.90;;;;;;4846832;29;20943;-91
2021/05/18 13:54:35;;;;;;;6.05;1.50;;;14.20;99.90;;;;;;4845034;29;20052;-90
2021/05/18 13:57:04;;;;;;;1.77;1.33;;;14.40;99.90;;;;;;4871376;29;20088;-89
2021/05/18 13:59:32;;;;;;;1.27;1.15;;;14.60;99.90;;;;;;4842484;29;20056;-89
2021/05/18 14:02:00;;;;;;;1.45;1.17;;;14.90;99.90;;;;;;4887320;29;20049;-88
2021/05/18 14:04:28;;;;;;;4.35;1.15;;;15.00;99.90;;;;;;4855332;29;20048;-87
2021/05/18 14:10:10;;;;;;;4.47;1.67;;;15.20;99.90;;;;;;4857237;29;20828;-89
2021/05/18 14:12:38;;;;;;;4.70;2.70;;;15.20;99.90;;;;;;4843028;29;20421;-88
2021/05/18 14:15:07;;;;;;;1.75;1.00;;;15.20;99.90;;;;;;4869155;29;20060;-84
2021/05/18 14:17:35;;;;;;;2.97;1.00;;;15.20;99.90;;;;;;4873838;29;20064;-87
2021/05/18 14:20:06;;;;;;;1.25;1.08;;;15.30;99.90;;;;;;4868154;29;20049;-88
2021/05/18 14:22:35;;;;;;;2.60;1.63;;;15.60;99.90;;;;;;4870040;29;20057;-82
2021/05/18 14:27:33;;;;;;;2.05;1.15;;;16.80;99.90;;;;;;4893520;29;20045;-87
2021/05/18 14:30:07;;;;;;;1.00;0.88;;;17.40;99.90;;;;;;4879693;29;20062;-86
2021/05/18 14:32:36;;;;;;;1.25;0.80;;;17.80;99.90;;;;;;4879324;29;20053;-87
2021/05/18 14:35:13;;;;;;;1.85;1.38;;;17.90;99.90;;;;;;4861563;29;20052;-86
2021/05/18 14:37:43;;;;;;;1.58;1.25;;;17.80;99.90;;;;;;4870600;29;20073;-86
2021/05/18 14:42:55;;;;;;;1.42;0.98;;;17.50;99.90;;;;;;4888513;29;20056;-88
2021/05/18 14:45:35;;;;;;;1.20;0.90;;;17.30;99.90;;;;;;4872450;29;20057;-87
2021/05/18 14:56:07;;;;;;;2.47;1.00;;;16.20;99.90;;;;;;4870564;29;20041;-87
2021/05/18 14:58:35;;;;;;;1.77;1.10;;;16.10;99.90;;;;;;4889109;29;20046;-87
2021/05/18 15:01:04;;;;;;;3.03;1.52;;;15.80;99.90;;;;;;4864329;29;20147;-89
2021/05/18 15:03:35;;;;;;;2.05;1.40;;;15.60;99.90;;;;;;4862056;29;20053;-89
2021/05/18 15:06:03;;;;;;;1.45;1.20;;;15.40;99.90;;;;;;4873002;29;20064;-89
2021/05/18 15:08:31;;;;;;;3.38;1.55;;;15.30;99.90;;;;;;4856371;29;20497;-88
2021/05/18 15:11:04;;;;;;;2.03;1.35;;;15.20;99.90;;;;;;4870858;29;20064;-90
2021/05/18 15:13:34;;;;;;;1.08;0.98;;;15.00;99.90;;;;;;4846387;29;20056;-90
2021/05/18 15:16:04;;;;;;;10.57;3.08;;;14.50;99.90;;;;;;4862130;29;20080;-86
2021/05/18 15:18:33;;;;;;;3.80;1.90;;;14.10;99.90;;;;;;4874260;29;20499;-88
2021/05/18 15:21:02;;;;;;;1.05;0.95;;;13.70;99.90;;;;;;4872319;29;20063;-89
2021/05/18 15:23:30;;;;;;;2.83;2.30;;;13.40;99.90;;;;;;4872446;29;20068;-90
2021/05/18 15:25:59;;;;;;;3.95;1.60;;;13.10;99.90;;;;;;4844607;29;20065;-88
2021/05/18 15:28:27;;;;;;;8.27;1.88;;;12.90;99.90;;;;;;4864512;29;20061;-88
2021/05/18 15:30:55;;;;;;;5.63;1.50;;;12.80;99.90;;;;;;4876079;29;20054;-88
2021/05/18 15:33:25;;;;;;;1.90;1.70;;;12.60;99.90;;;;;;4861465;29;20569;-90
2021/05/18 15:35:54;;;;;;;7.22;2.50;;;12.50;99.90;;;;;;4858731;29;20064;-88
2021/05/18 15:38:23;;;;;;;3.50;1.92;;;12.50;99.90;;;;;;4874139;29;20052;-89
2021/05/18 15:40:52;;;;;;;7.63;2.33;;;12.40;99.90;;;;;;4862497;29;20053;-91
2021/05/18 15:43:23;;;;;;;14.70;2.67;;;12.20;99.90;;;;;;4867212;29;20134;-89
2021/05/18 15:45:51;;;;;;;4.85;1.92;;;12.20;99.90;;;;;;4843583;29;20049;-90
2021/05/18 15:48:19;;;;;;;9.55;4.07;;;12.10;99.90;;;;;;4860405;29;20879;-88
2021/05/18 15:50:48;;;;;;;8.77;2.53;;;12.20;99.90;;;;;;4857914;29;20414;-88
2021/05/18 15:53:16;;;;;;;4.60;2.17;;;12.30;99.90;;;;;;4844111;29;20060;-89
2021/05/18 15:55:44;;;;;;;8.02;1.65;;;13.30;99.90;;;;;;4873262;29;20061;-88
2021/05/18 15:58:15;;;;;;;6.72;1.50;;;14.00;99.90;;;;;;4878425;29;20382;-89
2021/05/18 16:00:47;;;;;;;5.15;1.73;;;14.50;99.90;;;;;;4865878;29;20058;-88
2021/05/18 16:03:15;;;;;;;4.60;2.28;;;14.70;99.90;;;;;;4856295;29;20052;-89
2021/05/18 16:05:43;;;;;;;3.08;1.50;;;14.80;99.90;;;;;;4860339;29;20095;-90
2021/05/18 16:11:05;;;;;;;3.67;1.65;;;15.10;99.90;;;;;;4868629;29;20067;-88
2021/05/18 16:13:35;;;;;;;7.18;1.92;;;15.40;99.90;;;;;;4880671;29;20056;-89
2021/05/18 16:16:16;;;;;;;5.70;1.33;;;15.90;99.90;;;;;;4862009;29;20053;-87
2021/05/18 16:18:50;;;;;;;4.03;1.42;;;16.70;99.90;;;;;;4850414;29;20048;-88
2021/05/18 16:21:19;;;;;;;2.35;1.20;;;17.70;99.90;;;;;;4872765;29;20250;-89
2021/05/18 16:23:55;;;;;;;2.78;1.30;;;18.50;99.90;;;;;;4871730;29;20053;-88
2021/05/18 16:26:33;;;;;;;6.05;1.30;;;19.20;99.90;;;;;;4860786;29;20049;-88
2021/05/18 16:29:03;;;;;;;4.90;1.30;;;19.80;99.90;;;;;;4861770;29;20681;-87
2021/05/18 16:31:32;;;;;;;3.53;0.88;;;20.00;99.90;;;;;;4868288;29;20497;-87
2021/05/18 16:34:00;;;;;;;9.45;1.38;;;20.20;99.90;;;;;;4854906;29;20049;-87
2021/05/18 16:36:29;;;;;;;2.60;0.90;;;20.30;99.90;;;;;;4863812;29;20041;-85
2021/05/18 16:38:58;;;;;;;4.70;1.60;;;20.10;99.90;;;;;;4853815;29;20076;-87
2021/05/18 16:41:36;;;;;;;7.82;1.30;;;19.90;99.90;;;;;;4856548;29;20057;-88
2021/05/18 16:44:08;;;;;;;3.78;0.98;;;19.30;99.90;;;;;;4853620;29;20057;-86
2021/05/18 16:46:39;;;;;;;1.90;0.90;;;20.00;99.90;;;;;;4872603;29;20057;-89
2021/05/18 16:49:08;;;;;;;4.57;1.33;;;20.50;99.90;;;;;;4879117;29;20052;-91
2021/05/18 16:51:38;;;;;;;3.33;1.23;;;20.90;99.90;;;;;;4860401;29;20056;-87
2021/05/18 16:54:11;;;;;;;2.35;0.80;;;21.30;99.90;;;;;;4857384;29;20063;-91
2021/05/18 16:56:40;;;;;;;5.30;1.00;;;21.00;99.90;;;;;;4868806;29;20583;-86
2021/05/18 16:59:13;;;;;;;;;;;20.80;99.90;;;;;;4873990;29;20057;-87
2021/05/18 17:01:44;;;;;;;3.45;1.10;;;20.40;99.90;;;;;;4859160;29;19935;-86
2021/05/18 17:04:16;;;;;;;12.55;1.77;;;20.30;99.90;;;;;;4859771;29;20061;-88
2021/05/18 17:06:49;;;;;;;3.85;1.20;;;20.30;99.90;;;;;;4858302;29;20053;-88
2021/05/18 17:09:17;;;;;;;3.92;1.20;;;20.20;99.90;;;;;;4862432;29;20516;-88
2021/05/18 17:11:46;;;;;;;2.63;1.00;;;20.10;99.90;;;;;;4878067;29;20056;-87
2021/05/18 17:14:14;;;;;;;2.72;0.90;;;20.20;99.90;;;;;;4878747;29;20068;-90
2021/05/18 17:16:42;;;;;;;1.65;0.93;;;20.50;99.90;;;;;;4860700;29;20046;-91
2021/05/18 17:19:12;;;;;;;2.88;1.10;;;20.80;99.90;;;;;;4860556;29;20425;-89
2021/05/18 17:21:40;;;;;;;9.13;1.50;;;20.60;99.90;;;;;;4838754;29;20058;-90
2021/05/18 17:24:09;;;;;;;5.13;0.90;;;19.90;99.90;;;;;;4857728;29;20096;-90
2021/05/18 17:26:37;;;;;;;4.32;1.27;;;19.00;99.90;;;;;;4874682;29;20060;-90
2021/05/18 17:29:06;;;;;;;5.20;1.60;;;18.30;99.90;;;;;;4844376;29;20563;-90
2021/05/18 17:31:34;;;;;;;4.22;1.20;;;17.70;99.90;;;;;;4837979;29;20068;-89
2021/05/18 17:34:03;;;;;;;8.85;1.42;;;17.60;99.90;;;;;;4856776;29;20493;-89
2021/05/18 17:36:32;;;;;;;7.07;2.50;;;17.90;99.90;;;;;;4855339;29;20124;-89
2021/05/18 17:39:00;;;;;;;4.38;1.30;;;18.30;99.90;;;;;;4888238;29;20060;-89
2021/05/18 17:41:28;;;;;;;7.82;1.58;;;18.50;99.90;;;;;;4853570;29;20522;-89
2021/05/18 17:43:56;;;;;;;4.25;1.30;;;18.40;99.90;;;;;;4860759;29;20056;-88
2021/05/18 17:46:28;;;;;;;8.25;1.20;;;18.00;99.90;;;;;;4872347;29;20080;-87
2021/05/18 17:48:56;;;;;;;7.32;1.45;;;17.50;99.90;;;;;;4887202;29;20064;-88
2021/05/18 17:51:24;;;;;;;4.13;1.35;;;17.00;99.90;;;;;;4872000;29;20064;-88
2021/05/18 17:53:53;;;;;;;7.35;1.95;;;16.60;99.90;;;;;;4871875;29;20053;-89
2021/05/18 17:56:22;;;;;;;7.13;1.52;;;16.20;99.90;;;;;;4861389;29;20053;-87
2021/05/18 17:58:52;;;;;;;8.88;1.98;;;15.90;99.90;;;;;;4870102;29;20046;-89
2021/05/18 18:01:24;;;;;;;4.80;1.67;;;15.70;99.90;;;;;;4850347;29;20051;-90
2021/05/18 18:03:52;;;;;;;5.72;2.13;;;15.50;99.90;;;;;;4857105;29;20053;-89
2021/05/18 18:06:21;;;;;;;5.53;1.40;;;15.40;99.90;;;;;;4854561;29;20064;-89
2021/05/18 18:08:53;;;;;;;8.25;2.13;;;15.20;99.90;;;;;;4855343;29;20061;-89
2021/05/18 18:11:27;;;;;;;14.70;1.98;;;15.00;99.90;;;;;;4835366;29;20056;-90
2021/05/18 18:13:55;;;;;;;15.02;3.15;;;14.80;99.90;;;;;;4861064;29;20049;-87
2021/05/18 18:16:29;;;;;;;7.23;1.72;;;14.70;99.90;;;;;;4527214;29;10001156;-88
2021/05/18 18:19:05;;;;;;;5.78;1.92;;;14.60;99.90;;;;;;4888630;29;20067;-89
2021/05/18 18:21:35;;;;;;;4.70;1.90;;;14.50;99.90;;;;;;4855699;29;20599;-88
2021/05/18 18:24:09;;;;;;;4.00;2.10;;;16.00;99.90;;;;;;4880896;29;20056;-89
2021/05/18 18:26:39;;;;;;;6.75;1.80;;;14.40;99.90;;;;;;4867994;29;20068;-89
2021/05/18 18:29:11;;;;;;;12.35;2.15;;;14.40;99.90;;;;;;4838050;29;20072;-89
2021/05/18 18:31:40;;;;;;;2.30;1.73;;;14.40;99.90;;;;;;4891318;29;20060;-89
2021/05/18 18:34:08;;;;;;;8.23;1.88;;;14.50;99.90;;;;;;4868163;29;20442;-90
2021/05/18 18:36:42;;;;;;;6.60;2.10;;;14.60;99.90;;;;;;4879184;29;20057;-90
2021/05/18 18:39:16;;;;;;;9.60;3.05;;;14.40;99.90;;;;;;4885437;29;20061;-90
2021/05/18 18:41:49;;;;;;;7.40;2.28;;;14.60;99.90;;;;;;4855824;29;20048;-90
2021/05/18 18:44:21;;;;;;;5.68;2.13;;;14.60;99.90;;;;;;4866286;29;20049;-91
2021/05/18 18:46:49;;;;;;;14.13;2.95;;;14.60;99.90;;;;;;4856994;29;20052;-90
2021/05/18 18:49:23;;;;;;;16.80;2.38;;;14.50;99.90;;;;;;4875207;29;20049;-91
2021/05/18 18:51:54;;;;;;;9.95;2.90;;;14.40;99.90;;;;;;4866858;29;20056;-91
2021/05/18 18:54:22;;;;;;;7.60;1.85;;;14.30;99.90;;;;;;4857478;29;20057;-89